Home

Weather

KSLC Current Conditions

KSLC 191554Z 13004KT 10SM FEW200 14/02 A3019 RMK AO2 SLP197 T01440017 $

KSLC Aviation Forecast

TAF AMD KSLC 191424Z 1914/2018 15009KT P6SM SKC FM192100 34009KT P6SM FEW250 FM200300 15008KT P6SM SCT250 FM200700 15012KT P6SM FEW150 BKN250 FM201200 15014G21KT P6SM SCT150 BKN200


0° F

Currently
Currently
Currently
Currently
Currently
Currently